Currently 38°F in Temecula, California, USA
38°F
44°F / 38°F
calm
0.00"
Wednesday, January 18, 2017 5:59 AM PST

Temecula, California Weather Summary
Last 36 Hours

Temperature Winds Hourly Humidity Dewpoint
Time Report Norm Report Norm Max Gusts Precip. Rpt. Norm Rpt. Norm Pressure
1,3Wed 05:59 AM  38.0°F  42°F  calm  1 mph  none  0.00"  97%  82%  37°F  37°F  30.24"
Wed 05:00 AM  39.0°F  43°F  calm  1 mph  none  0.00"  96%  81%  38°F  37°F  30.23"
Wed 04:00 AM  39.5°F  43°F  calm  1 mph  none  0.00"  95%  80%  38°F  38°F  30.24"
Wed 03:00 AM  41.0°F  44°F  calm  1 mph  none  0.00"  95%  79%  40°F  38°F  30.22"
Wed 02:00 AM  41.4°F  45°F  calm  1 mph  2 mph  0.00"  95%  77%  40°F  38°F  30.24"
Wed 01:00 AM  42.4°F  46°F  calm  1 mph  4 mph  0.00"  94%  76%  41°F  38°F  30.23"
2Wed 12:00 AM  44.2°F  47°F  calm  1 mph  2 mph  0.00"  92%  74%  42°F  39°F  30.22"
Tue 11:00 PM  45.9°F  49°F  calm  1 mph  3 mph  0.00"  93%  71%  44°F  39°F  30.22"
Tue 10:00 PM  48.3°F  50°F  1 mph NE  1 mph  4 mph  0.00"  91%  69%  46°F  40°F  30.21"
Tue 09:00 PM  48.7°F  52°F  calm  1 mph  4 mph  0.00"  86%  66%  45°F  41°F  30.19"
Tue 08:00 PM  50.4°F  54°F  calm  1 mph  4 mph  0.00"  82%  64%  45°F  41°F  30.18"
Tue 07:00 PM  54.8°F  56°F  calm  1 mph  6 mph  0.00"  78%  59%  48°F  41°F  30.16"
Tue 06:00 PM  57.1°F  59°F  3 mph SE  2 mph  7 mph  0.00"  74%  54%  48°F  42°F  30.16"
Tue 05:00 PM  60.8°F  63°F  2 mph S  3 mph  11 mph  0.00"  66%  47%  49°F  41°F  30.13"
Tue 04:00 PM  65.7°F  67°F  4 mph W  4 mph  11 mph  0.00"  52%  40%  47°F  41°F  30.09"
Tue 03:00 PM  68.2°F  69°F  3 mph W  5 mph  8 mph  0.00"  31%  36%  35°F  40°F  30.09"
Tue 02:00 PM  64.8°F  69°F  5 mph E  5 mph  9 mph  0.00"  35%  36%  35°F  40°F  30.07"
Tue 01:00 PM  63.9°F  68°F  3 mph W  4 mph  8 mph  0.00"  42%  38%  39°F  40°F  30.08"
Tue 12:00 PM  60.7°F  64°F  2 mph N  3 mph  5 mph  0.00"  49%  44%  41°F  41°F  30.13"
Tue 11:00 AM  56.4°F  60°F  2 mph NW  2 mph  4 mph  0.00"  60%  53%  42°F  42°F  30.18"
Tue 10:00 AM  50.2°F  53°F  calm  2 mph  2 mph  0.00"  75%  65%  42°F  41°F  30.21"
Tue 09:00 AM  42.5°F  47°F  calm  1 mph  none  0.00"  95%  77%  41°F  39°F  30.20"
Tue 08:00 AM  38.2°F  42°F  calm  1 mph  1 mph  0.00"  97%  83%  37°F  38°F  30.19"
Tue 07:00 AM  37.9°F  42°F  calm  1 mph  none  0.00"  97%  84%  37°F  37°F  30.16"
Tue 06:00 AM  38.8°F  42°F  calm  1 mph  2 mph  0.00"  96%  83%  38°F  37°F  30.17"
Tue 05:00 AM  40.0°F  43°F  calm  1 mph  none  0.00"  96%  82%  39°F  37°F  30.15"
Tue 04:00 AM  41.0°F  43°F  calm  1 mph  none  0.00"  95%  81%  40°F  38°F  30.13"
Tue 03:00 AM  41.7°F  44°F  calm  1 mph  4 mph  0.00"  95%  79%  40°F  38°F  30.12"
Tue 02:00 AM  43.1°F  45°F  calm  1 mph  none  0.00"  94%  77%  41°F  38°F  30.12"
Tue 01:00 AM  43.7°F  46°F  calm  1 mph  2 mph  0.00"  95%  76%  42°F  39°F  30.12"
Tue 12:00 AM  44.4°F  47°F  calm  1 mph  3 mph  0.00"  93%  74%  42°F  39°F  30.12"
Mon 11:00 PM  45.6°F  49°F  calm  1 mph  2 mph  0.00"  92%  71%  43°F  39°F  30.14"
Mon 10:00 PM  47.0°F  50°F  calm  1 mph  3 mph  0.00"  92%  69%  45°F  40°F  30.14"
Mon 09:00 PM  48.7°F  52°F  calm  1 mph  3 mph  0.00"  89%  67%  45°F  40°F  30.12"
Mon 08:00 PM  52.2°F  54°F  calm  1 mph  6 mph  0.00"  87%  64%  48°F  41°F  30.11"
Mon 07:00 PM  54.6°F  56°F  2 mph S  1 mph  7 mph  0.00"  89%  59%  51°F  41°F  30.09"
Mon 06:00 PM  56.9°F  59°F  6 mph S  2 mph  8 mph  0.00"  86%  54%  53°F  42°F  30.08"

  1. Current weather data. No green row appears if the current weather data is also the high or low for the current day.
  2. High temperature for the current day.
  3. Low temperature for the current day.

The Temecula weather pages are a service of WeatherCurrents. Temecula, California is located in the Temecula Valley, in southwestern Riverside County, along the Interstate 15 highway. The Temecula Valley's rolling hills are home to the Temecula wine country, vineyards, golf courses, a casino resort, and Old Town Temecula.
Copyright ©Wed Jan 18 06:00:26 PST 2017  WeatherCurrents. All rights reserved. - Submit questions and comments - Privacy Policy

This page automatically refreshes every 10 minutes.